sensor_id;sensor_type;location;lat;lon;timestamp;P1;durP1;ratioP1;P2;durP2;ratioP2
59659;SDS011;45534;52.690;6.268;2023-06-19T00:01:48;10.38;;;6.93;;
59659;SDS011;45534;52.690;6.268;2023-06-19T00:04:14;9.57;;;7.22;;
59659;SDS011;45534;52.690;6.268;2023-06-19T00:06:39;11.00;;;6.90;;
59659;SDS011;45534;52.690;6.268;2023-06-19T00:09:06;11.57;;;7.88;;
59659;SDS011;45534;52.690;6.268;2023-06-19T00:11:32;12.43;;;6.22;;
59659;SDS011;45534;52.690;6.268;2023-06-19T00:13:58;12.55;;;11.05;;
59659;SDS011;45534;52.690;6.268;2023-06-19T00:16:24;8.70;;;7.63;;
59659;SDS011;45534;52.690;6.268;2023-06-19T00:18:50;10.25;;;7.75;;
59659;SDS011;45534;52.690;6.268;2023-06-19T00:21:24;9.60;;;5.63;;
59659;SDS011;45534;52.690;6.268;2023-06-19T00:23:50;13.88;;;11.95;;
59659;SDS011;45534;52.690;6.268;2023-06-19T00:26:16;14.60;;;11.80;;
59659;SDS011;45534;52.690;6.268;2023-06-19T00:28:42;10.80;;;7.95;;
59659;SDS011;45534;52.690;6.268;2023-06-19T00:31:10;10.50;;;6.80;;
59659;SDS011;45534;52.690;6.268;2023-06-19T00:33:40;13.02;;;11.38;;
59659;SDS011;45534;52.690;6.268;2023-06-19T00:36:10;20.63;;;11.88;;
59659;SDS011;45534;52.690;6.268;2023-06-19T00:38:36;12.95;;;11.18;;
59659;SDS011;45534;52.690;6.268;2023-06-19T00:41:02;8.02;;;6.03;;
59659;SDS011;45534;52.690;6.268;2023-06-19T00:43:28;7.40;;;5.40;;
59659;SDS011;45534;52.690;6.268;2023-06-19T00:45:55;9.32;;;6.40;;
59659;SDS011;45534;52.690;6.268;2023-06-19T00:48:22;9.73;;;8.80;;
59659;SDS011;45534;52.690;6.268;2023-06-19T00:50:51;12.40;;;11.10;;
59659;SDS011;45534;52.690;6.268;2023-06-19T00:53:17;9.95;;;6.00;;
59659;SDS011;45534;52.690;6.268;2023-06-19T00:55:45;10.23;;;6.88;;
59659;SDS011;45534;52.690;6.268;2023-06-19T00:58:12;12.73;;;7.22;;
59659;SDS011;45534;52.690;6.268;2023-06-19T01:00:38;12.32;;;6.63;;
59659;SDS011;45534;52.690;6.268;2023-06-19T01:03:04;9.32;;;6.20;;
59659;SDS011;45534;52.690;6.268;2023-06-19T01:05:30;11.63;;;10.40;;
59659;SDS011;45534;52.690;6.268;2023-06-19T01:10:56;13.90;;;11.75;;
59659;SDS011;45534;52.690;6.268;2023-06-19T01:13:27;16.35;;;12.40;;
59659;SDS011;45534;52.690;6.268;2023-06-19T01:16:02;10.23;;;7.60;;
59659;SDS011;45534;52.690;6.268;2023-06-19T01:18:29;9.63;;;6.15;;
59659;SDS011;45534;52.690;6.268;2023-06-19T01:20:56;14.75;;;9.07;;
59659;SDS011;45534;52.690;6.268;2023-06-19T01:23:22;9.25;;;6.00;;
59659;SDS011;45534;52.690;6.268;2023-06-19T01:25:47;15.10;;;11.77;;
59659;SDS011;45534;52.690;6.268;2023-06-19T01:28:13;12.90;;;11.55;;
59659;SDS011;45534;52.690;6.268;2023-06-19T01:30:40;17.98;;;9.13;;
59659;SDS011;45534;52.690;6.268;2023-06-19T01:35:36;10.13;;;5.80;;
59659;SDS011;45534;52.690;6.268;2023-06-19T01:38:03;10.00;;;6.45;;
59659;SDS011;45534;52.690;6.268;2023-06-19T01:40:31;11.23;;;6.60;;
59659;SDS011;45534;52.690;6.268;2023-06-19T01:43:00;9.45;;;6.32;;
59659;SDS011;45534;52.690;6.268;2023-06-19T01:45:27;10.05;;;6.88;;
59659;SDS011;45534;52.690;6.268;2023-06-19T01:47:54;12.20;;;10.90;;
59659;SDS011;45534;52.690;6.268;2023-06-19T01:50:23;12.15;;;10.95;;
59659;SDS011;45534;52.690;6.268;2023-06-19T01:52:49;11.07;;;6.88;;
59659;SDS011;45534;52.690;6.268;2023-06-19T01:55:15;11.63;;;10.43;;
59659;SDS011;45534;52.690;6.268;2023-06-19T01:57:41;12.40;;;11.10;;
59659;SDS011;45534;52.690;6.268;2023-06-19T02:00:07;12.43;;;11.13;;
59659;SDS011;45534;52.690;6.268;2023-06-19T02:02:35;13.65;;;11.20;;
59659;SDS011;45534;52.690;6.268;2023-06-19T02:05:01;10.32;;;8.43;;
59659;SDS011;45534;52.690;6.268;2023-06-19T02:07:27;11.80;;;10.55;;
59659;SDS011;45534;52.690;6.268;2023-06-19T02:09:53;8.48;;;6.38;;
59659;SDS011;45534;52.690;6.268;2023-06-19T02:12:19;7.43;;;6.50;;
59659;SDS011;45534;52.690;6.268;2023-06-19T02:14:44;8.63;;;5.35;;
59659;SDS011;45534;52.690;6.268;2023-06-19T02:17:10;13.10;;;6.00;;
59659;SDS011;45534;52.690;6.268;2023-06-19T02:19:36;13.35;;;10.32;;
59659;SDS011;45534;52.690;6.268;2023-06-19T02:22:02;11.18;;;9.95;;
59659;SDS011;45534;52.690;6.268;2023-06-19T02:24:27;7.45;;;6.20;;
59659;SDS011;45534;52.690;6.268;2023-06-19T02:26:53;9.75;;;5.75;;
59659;SDS011;45534;52.690;6.268;2023-06-19T02:29:19;10.23;;;6.43;;
59659;SDS011;45534;52.690;6.268;2023-06-19T02:31:45;8.02;;;5.45;;
59659;SDS011;45534;52.690;6.268;2023-06-19T02:34:13;8.00;;;5.00;;
59659;SDS011;45534;52.690;6.268;2023-06-19T02:36:39;7.50;;;4.85;;
59659;SDS011;45534;52.690;6.268;2023-06-19T02:39:04;7.45;;;5.38;;
59659;SDS011;45534;52.690;6.268;2023-06-19T02:44:03;9.88;;;5.90;;
59659;SDS011;45534;52.690;6.268;2023-06-19T02:46:28;6.45;;;4.78;;
59659;SDS011;45534;52.690;6.268;2023-06-19T02:48:54;8.88;;;5.80;;
59659;SDS011;45534;52.690;6.268;2023-06-19T02:51:20;25.40;;;10.98;;
59659;SDS011;45534;52.690;6.268;2023-06-19T02:53:45;10.15;;;6.82;;
59659;SDS011;45534;52.690;6.268;2023-06-19T02:56:12;8.95;;;6.47;;
59659;SDS011;45534;52.690;6.268;2023-06-19T02:58:38;10.65;;;5.85;;
59659;SDS011;45534;52.690;6.268;2023-06-19T03:01:04;11.85;;;8.30;;
59659;SDS011;45534;52.690;6.268;2023-06-19T03:03:33;9.75;;;6.72;;
59659;SDS011;45534;52.690;6.268;2023-06-19T03:06:05;8.52;;;6.60;;
59659;SDS011;45534;52.690;6.268;2023-06-19T03:08:35;7.38;;;6.30;;
59659;SDS011;45534;52.690;6.268;2023-06-19T03:11:01;6.80;;;5.43;;
59659;SDS011;45534;52.690;6.268;2023-06-19T03:13:29;8.18;;;6.32;;
59659;SDS011;45534;52.690;6.268;2023-06-19T03:16:09;5.15;;;4.45;;
59659;SDS011;45534;52.690;6.268;2023-06-19T03:18:35;20.17;;;6.32;;
59659;SDS011;45534;52.690;6.268;2023-06-19T03:21:01;5.07;;;3.70;;
59659;SDS011;45534;52.690;6.268;2023-06-19T03:23:26;4.25;;;3.83;;
59659;SDS011;45534;52.690;6.268;2023-06-19T03:25:52;7.63;;;4.40;;
59659;SDS011;45534;52.690;6.268;2023-06-19T03:28:18;7.00;;;3.40;;
59659;SDS011;45534;52.690;6.268;2023-06-19T03:30:43;9.15;;;5.95;;
59659;SDS011;45534;52.690;6.268;2023-06-19T03:33:09;4.00;;;3.38;;
59659;SDS011;45534;52.690;6.268;2023-06-19T03:35:35;5.95;;;3.45;;
59659;SDS011;45534;52.690;6.268;2023-06-19T03:38:01;4.28;;;3.22;;
59659;SDS011;45534;52.690;6.268;2023-06-19T03:40:26;6.60;;;3.63;;
59659;SDS011;45534;52.690;6.268;2023-06-19T03:42:52;5.90;;;3.35;;
59659;SDS011;45534;52.690;6.268;2023-06-19T03:45:18;5.68;;;3.45;;
59659;SDS011;45534;52.690;6.268;2023-06-19T03:47:44;3.53;;;2.30;;
59659;SDS011;45534;52.690;6.268;2023-06-19T03:50:09;3.53;;;2.92;;
59659;SDS011;45534;52.690;6.268;2023-06-19T03:52:36;7.13;;;5.47;;
59659;SDS011;45534;52.690;6.268;2023-06-19T03:55:02;4.55;;;3.25;;
59659;SDS011;45534;52.690;6.268;2023-06-19T03:57:28;7.05;;;3.78;;
59659;SDS011;45534;52.690;6.268;2023-06-19T03:59:54;5.40;;;3.53;;
59659;SDS011;45534;52.690;6.268;2023-06-19T04:02:21;4.68;;;3.05;;
59659;SDS011;45534;52.690;6.268;2023-06-19T04:04:46;4.22;;;2.88;;
59659;SDS011;45534;52.690;6.268;2023-06-19T04:07:12;3.28;;;2.50;;
59659;SDS011;45534;52.690;6.268;2023-06-19T04:09:38;4.05;;;3.60;;
59659;SDS011;45534;52.690;6.268;2023-06-19T04:12:04;6.85;;;3.97;;
59659;SDS011;45534;52.690;6.268;2023-06-19T04:14:30;2.65;;;2.28;;
59659;SDS011;45534;52.690;6.268;2023-06-19T04:16:56;5.60;;;3.20;;
59659;SDS011;45534;52.690;6.268;2023-06-19T04:19:22;9.98;;;5.80;;
59659;SDS011;45534;52.690;6.268;2023-06-19T04:21:47;10.07;;;4.40;;
59659;SDS011;45534;52.690;6.268;2023-06-19T04:24:13;8.35;;;3.70;;
59659;SDS011;45534;52.690;6.268;2023-06-19T04:26:39;6.72;;;3.88;;
59659;SDS011;45534;52.690;6.268;2023-06-19T04:29:04;6.47;;;2.97;;
59659;SDS011;45534;52.690;6.268;2023-06-19T04:31:32;4.05;;;3.30;;
59659;SDS011;45534;52.690;6.268;2023-06-19T04:33:58;5.53;;;4.97;;
59659;SDS011;45534;52.690;6.268;2023-06-19T04:36:24;6.25;;;3.90;;
59659;SDS011;45534;52.690;6.268;2023-06-19T04:38:49;6.75;;;4.63;;
59659;SDS011;45534;52.690;6.268;2023-06-19T04:41:18;5.65;;;4.88;;
59659;SDS011;45534;52.690;6.268;2023-06-19T04:43:44;3.17;;;2.88;;
59659;SDS011;45534;52.690;6.268;2023-06-19T04:46:09;5.57;;;3.75;;
59659;SDS011;45534;52.690;6.268;2023-06-19T04:48:35;4.22;;;3.60;;
59659;SDS011;45534;52.690;6.268;2023-06-19T04:51:02;4.38;;;3.28;;
59659;SDS011;45534;52.690;6.268;2023-06-19T04:53:28;3.63;;;3.30;;
59659;SDS011;45534;52.690;6.268;2023-06-19T04:55:54;9.20;;;6.55;;
59659;SDS011;45534;52.690;6.268;2023-06-19T04:58:20;4.50;;;3.47;;
59659;SDS011;45534;52.690;6.268;2023-06-19T05:00:47;3.88;;;2.72;;
59659;SDS011;45534;52.690;6.268;2023-06-19T05:03:17;6.00;;;3.17;;
59659;SDS011;45534;52.690;6.268;2023-06-19T05:05:43;6.13;;;4.35;;
59659;SDS011;45534;52.690;6.268;2023-06-19T05:08:09;4.70;;;3.38;;
59659;SDS011;45534;52.690;6.268;2023-06-19T05:10:35;4.60;;;3.35;;
59659;SDS011;45534;52.690;6.268;2023-06-19T05:13:01;5.30;;;3.63;;
59659;SDS011;45534;52.690;6.268;2023-06-19T05:15:27;4.65;;;3.80;;
59659;SDS011;45534;52.690;6.268;2023-06-19T05:17:53;6.25;;;3.72;;
59659;SDS011;45534;52.690;6.268;2023-06-19T05:20:19;5.07;;;4.03;;
59659;SDS011;45534;52.690;6.268;2023-06-19T05:22:45;4.20;;;2.80;;
59659;SDS011;45534;52.690;6.268;2023-06-19T05:25:11;4.90;;;3.35;;
59659;SDS011;45534;52.690;6.268;2023-06-19T05:27:36;7.63;;;3.60;;
59659;SDS011;45534;52.690;6.268;2023-06-19T05:30:02;6.65;;;4.18;;
59659;SDS011;45534;52.690;6.268;2023-06-19T05:32:29;8.90;;;7.55;;
59659;SDS011;45534;52.690;6.268;2023-06-19T05:34:55;5.65;;;3.45;;
59659;SDS011;45534;52.690;6.268;2023-06-19T05:37:21;4.85;;;3.63;;
59659;SDS011;45534;52.690;6.268;2023-06-19T05:39:47;5.70;;;3.50;;
59659;SDS011;45534;52.690;6.268;2023-06-19T05:42:13;4.30;;;3.90;;
59659;SDS011;45534;52.690;6.268;2023-06-19T05:44:39;5.53;;;4.28;;
59659;SDS011;45534;52.690;6.268;2023-06-19T05:47:05;6.65;;;4.18;;
59659;SDS011;45534;52.690;6.268;2023-06-19T05:49:31;5.97;;;4.85;;
59659;SDS011;45534;52.690;6.268;2023-06-19T05:51:57;8.30;;;5.72;;
59659;SDS011;45534;52.690;6.268;2023-06-19T05:54:26;16.02;;;5.53;;
59659;SDS011;45534;52.690;6.268;2023-06-19T05:56:52;9.15;;;4.88;;
59659;SDS011;45534;52.690;6.268;2023-06-19T05:59:18;11.40;;;6.40;;
59659;SDS011;45534;52.690;6.268;2023-06-19T06:01:44;8.07;;;7.13;;
59659;SDS011;45534;52.690;6.268;2023-06-19T06:04:09;12.77;;;9.85;;
59659;SDS011;45534;52.690;6.268;2023-06-19T06:06:35;9.95;;;6.20;;
59659;SDS011;45534;52.690;6.268;2023-06-19T06:09:01;14.55;;;8.23;;
59659;SDS011;45534;52.690;6.268;2023-06-19T06:11:26;13.07;;;9.50;;
59659;SDS011;45534;52.690;6.268;2023-06-19T06:13:52;19.13;;;17.30;;
59659;SDS011;45534;52.690;6.268;2023-06-19T06:16:18;18.08;;;15.23;;
59659;SDS011;45534;52.690;6.268;2023-06-19T06:18:44;13.23;;;7.82;;
59659;SDS011;45534;52.690;6.268;2023-06-19T06:21:10;10.32;;;7.43;;
59659;SDS011;45534;52.690;6.268;2023-06-19T06:23:38;17.02;;;8.55;;
59659;SDS011;45534;52.690;6.268;2023-06-19T06:26:05;10.57;;;7.15;;
59659;SDS011;45534;52.690;6.268;2023-06-19T06:28:31;16.83;;;15.10;;
59659;SDS011;45534;52.690;6.268;2023-06-19T06:30:57;19.13;;;14.20;;
59659;SDS011;45534;52.690;6.268;2023-06-19T06:33:23;14.10;;;8.60;;
59659;SDS011;45534;52.690;6.268;2023-06-19T06:35:49;8.07;;;5.88;;
59659;SDS011;45534;52.690;6.268;2023-06-19T06:38:15;9.50;;;5.93;;
59659;SDS011;45534;52.690;6.268;2023-06-19T06:40:40;9.25;;;6.13;;
59659;SDS011;45534;52.690;6.268;2023-06-19T06:43:07;9.20;;;7.75;;
59659;SDS011;45534;52.690;6.268;2023-06-19T06:45:36;10.40;;;7.10;;
59659;SDS011;45534;52.690;6.268;2023-06-19T06:48:04;11.38;;;6.63;;
59659;SDS011;45534;52.690;6.268;2023-06-19T06:50:31;8.98;;;5.30;;
59659;SDS011;45534;52.690;6.268;2023-06-19T06:52:57;9.40;;;6.63;;
59659;SDS011;45534;52.690;6.268;2023-06-19T06:55:23;11.85;;;6.82;;
59659;SDS011;45534;52.690;6.268;2023-06-19T06:57:49;13.48;;;12.07;;
59659;SDS011;45534;52.690;6.268;2023-06-19T07:00:15;14.45;;;12.98;;
59659;SDS011;45534;52.690;6.268;2023-06-19T07:02:43;14.02;;;12.63;;
59659;SDS011;45534;52.690;6.268;2023-06-19T07:05:14;6.70;;;5.35;;
59659;SDS011;45534;52.690;6.268;2023-06-19T07:07:39;6.78;;;5.40;;
59659;SDS011;45534;52.690;6.268;2023-06-19T07:10:05;7.43;;;5.93;;
59659;SDS011;45534;52.690;6.268;2023-06-19T07:12:31;33.83;;;7.75;;
59659;SDS011;45534;52.690;6.268;2023-06-19T07:14:58;7.50;;;4.95;;
59659;SDS011;45534;52.690;6.268;2023-06-19T07:17:23;7.45;;;6.05;;
59659;SDS011;45534;52.690;6.268;2023-06-19T07:19:49;9.18;;;4.85;;
59659;SDS011;45534;52.690;6.268;2023-06-19T07:22:14;9.88;;;6.63;;
59659;SDS011;45534;52.690;6.268;2023-06-19T07:24:40;6.55;;;4.95;;
59659;SDS011;45534;52.690;6.268;2023-06-19T07:27:06;7.03;;;4.93;;
59659;SDS011;45534;52.690;6.268;2023-06-19T07:29:32;6.03;;;4.65;;
59659;SDS011;45534;52.690;6.268;2023-06-19T07:31:58;7.32;;;5.75;;
59659;SDS011;45534;52.690;6.268;2023-06-19T07:34:24;6.65;;;5.07;;
59659;SDS011;45534;52.690;6.268;2023-06-19T07:36:50;7.63;;;5.45;;
59659;SDS011;45534;52.690;6.268;2023-06-19T07:39:16;16.67;;;7.82;;
59659;SDS011;45534;52.690;6.268;2023-06-19T07:41:42;13.70;;;12.40;;
59659;SDS011;45534;52.690;6.268;2023-06-19T07:44:07;9.02;;;6.78;;
59659;SDS011;45534;52.690;6.268;2023-06-19T07:46:33;11.00;;;9.32;;
59659;SDS011;45534;52.690;6.268;2023-06-19T07:48:58;15.48;;;13.90;;
59659;SDS011;45534;52.690;6.268;2023-06-19T07:51:24;16.75;;;15.02;;
59659;SDS011;45534;52.690;6.268;2023-06-19T07:53:50;19.30;;;16.85;;
59659;SDS011;45534;52.690;6.268;2023-06-19T07:56:15;9.30;;;7.25;;
59659;SDS011;45534;52.690;6.268;2023-06-19T07:58:41;11.25;;;8.82;;
59659;SDS011;45534;52.690;6.268;2023-06-19T08:01:07;8.63;;;7.53;;
59659;SDS011;45534;52.690;6.268;2023-06-19T08:03:33;12.13;;;10.20;;
59659;SDS011;45534;52.690;6.268;2023-06-19T08:05:58;16.92;;;15.23;;
59659;SDS011;45534;52.690;6.268;2023-06-19T08:08:24;10.65;;;9.02;;
59659;SDS011;45534;52.690;6.268;2023-06-19T08:10:49;10.45;;;7.50;;
59659;SDS011;45534;52.690;6.268;2023-06-19T08:13:15;11.93;;;8.07;;
59659;SDS011;45534;52.690;6.268;2023-06-19T08:15:41;16.52;;;13.73;;
59659;SDS011;45534;52.690;6.268;2023-06-19T08:18:07;9.63;;;8.45;;
59659;SDS011;45534;52.690;6.268;2023-06-19T08:20:32;8.05;;;7.05;;
59659;SDS011;45534;52.690;6.268;2023-06-19T08:22:58;12.75;;;8.40;;
59659;SDS011;45534;52.690;6.268;2023-06-19T08:25:23;8.07;;;5.60;;
59659;SDS011;45534;52.690;6.268;2023-06-19T08:27:49;11.18;;;7.30;;
59659;SDS011;45534;52.690;6.268;2023-06-19T08:30:15;11.00;;;7.03;;
59659;SDS011;45534;52.690;6.268;2023-06-19T08:32:41;7.75;;;5.35;;
59659;SDS011;45534;52.690;6.268;2023-06-19T08:35:08;10.68;;;7.18;;
59659;SDS011;45534;52.690;6.268;2023-06-19T08:37:34;10.15;;;8.77;;
59659;SDS011;45534;52.690;6.268;2023-06-19T08:39:59;10.23;;;6.28;;
59659;SDS011;45534;52.690;6.268;2023-06-19T08:42:25;5.10;;;4.55;;
59659;SDS011;45534;52.690;6.268;2023-06-19T08:44:52;15.40;;;9.20;;
59659;SDS011;45534;52.690;6.268;2023-06-19T08:47:18;8.93;;;6.20;;
59659;SDS011;45534;52.690;6.268;2023-06-19T08:49:44;9.82;;;8.20;;
59659;SDS011;45534;52.690;6.268;2023-06-19T08:52:09;10.57;;;8.95;;
59659;SDS011;45534;52.690;6.268;2023-06-19T08:54:35;11.10;;;9.00;;
59659;SDS011;45534;52.690;6.268;2023-06-19T08:57:09;6.72;;;4.68;;
59659;SDS011;45534;52.690;6.268;2023-06-19T08:59:36;5.78;;;4.47;;
59659;SDS011;45534;52.690;6.268;2023-06-19T09:02:02;8.52;;;5.78;;
59659;SDS011;45534;52.690;6.268;2023-06-19T09:04:28;11.18;;;8.57;;
59659;SDS011;45534;52.690;6.268;2023-06-19T09:06:59;12.45;;;10.80;;
59659;SDS011;45534;52.690;6.268;2023-06-19T09:12:00;11.80;;;9.65;;
59659;SDS011;45534;52.690;6.268;2023-06-19T09:14:33;14.10;;;12.10;;
59659;SDS011;45534;52.690;6.268;2023-06-19T09:17:01;15.48;;;11.98;;
59659;SDS011;45534;52.690;6.268;2023-06-19T09:19:30;16.20;;;14.60;;
59659;SDS011;45534;52.690;6.268;2023-06-19T09:22:03;10.35;;;7.63;;
59659;SDS011;45534;52.690;6.268;2023-06-19T09:24:34;9.27;;;6.35;;
59659;SDS011;45534;52.690;6.268;2023-06-19T09:27:08;26.90;;;15.60;;
59659;SDS011;45534;52.690;6.268;2023-06-19T09:29:39;16.52;;;12.52;;
59659;SDS011;45534;52.690;6.268;2023-06-19T09:32:19;10.73;;;7.00;;
59659;SDS011;45534;52.690;6.268;2023-06-19T09:34:47;7.65;;;6.10;;
59659;SDS011;45534;52.690;6.268;2023-06-19T09:37:22;15.63;;;8.77;;
59659;SDS011;45534;52.690;6.268;2023-06-19T09:39:52;10.02;;;5.53;;
59659;SDS011;45534;52.690;6.268;2023-06-19T09:42:19;11.93;;;7.32;;
59659;SDS011;45534;52.690;6.268;2023-06-19T09:45:04;15.18;;;9.18;;
59659;SDS011;45534;52.690;6.268;2023-06-19T09:47:35;21.65;;;15.88;;
59659;SDS011;45534;52.690;6.268;2023-06-19T09:50:06;12.30;;;8.40;;
59659;SDS011;45534;52.690;6.268;2023-06-19T09:52:32;11.18;;;6.45;;
59659;SDS011;45534;52.690;6.268;2023-06-19T09:54:58;13.52;;;6.82;;
59659;SDS011;45534;52.690;6.268;2023-06-19T09:57:30;14.63;;;9.30;;
59659;SDS011;45534;52.690;6.268;2023-06-19T09:59:59;11.95;;;7.72;;
59659;SDS011;45534;52.690;6.268;2023-06-19T10:02:34;17.42;;;12.95;;
59659;SDS011;45534;52.690;6.268;2023-06-19T10:05:01;9.07;;;5.55;;
59659;SDS011;45534;52.690;6.268;2023-06-19T10:07:32;13.73;;;10.65;;
59659;SDS011;45534;52.690;6.268;2023-06-19T10:10:06;14.30;;;12.45;;
59659;SDS011;45534;52.690;6.268;2023-06-19T10:12:42;13.38;;;11.98;;
59659;SDS011;45534;52.690;6.268;2023-06-19T10:15:14;15.80;;;13.05;;
59659;SDS011;45534;52.690;6.268;2023-06-19T10:17:47;14.15;;;11.80;;
59659;SDS011;45534;52.690;6.268;2023-06-19T10:20:22;11.80;;;7.93;;
59659;SDS011;45534;52.690;6.268;2023-06-19T10:22:50;14.73;;;11.93;;
59659;SDS011;45534;52.690;6.268;2023-06-19T10:25:27;13.55;;;12.07;;
59659;SDS011;45534;52.690;6.268;2023-06-19T10:27:55;15.30;;;12.32;;
59659;SDS011;45534;52.690;6.268;2023-06-19T10:30:21;19.92;;;13.27;;
59659;SDS011;45534;52.690;6.268;2023-06-19T10:32:47;16.40;;;13.20;;
59659;SDS011;45534;52.690;6.268;2023-06-19T10:35:14;16.35;;;12.15;;
59659;SDS011;45534;52.690;6.268;2023-06-19T10:37:41;8.65;;;6.07;;
59659;SDS011;45534;52.690;6.268;2023-06-19T10:40:07;10.68;;;6.22;;
59659;SDS011;45534;52.690;6.268;2023-06-19T10:42:38;9.98;;;6.63;;
59659;SDS011;45534;52.690;6.268;2023-06-19T10:45:10;6.88;;;5.15;;
59659;SDS011;45534;52.690;6.268;2023-06-19T10:47:40;14.20;;;6.93;;
59659;SDS011;45534;52.690;6.268;2023-06-19T10:50:10;11.00;;;7.75;;
59659;SDS011;45534;52.690;6.268;2023-06-19T10:52:39;9.20;;;7.03;;
59659;SDS011;45534;52.690;6.268;2023-06-19T10:55:09;19.52;;;13.63;;
59659;SDS011;45534;52.690;6.268;2023-06-19T10:57:35;14.23;;;12.07;;
59659;SDS011;45534;52.690;6.268;2023-06-19T11:00:01;18.83;;;13.75;;
59659;SDS011;45534;52.690;6.268;2023-06-19T11:02:35;14.07;;;12.57;;
59659;SDS011;45534;52.690;6.268;2023-06-19T11:05:02;17.50;;;11.88;;
59659;SDS011;45534;52.690;6.268;2023-06-19T11:07:29;24.95;;;15.15;;
59659;SDS011;45534;52.690;6.268;2023-06-19T11:09:57;18.90;;;14.30;;
59659;SDS011;45534;52.690;6.268;2023-06-19T11:12:23;17.23;;;14.55;;
59659;SDS011;45534;52.690;6.268;2023-06-19T11:14:49;18.10;;;16.08;;
59659;SDS011;45534;52.690;6.268;2023-06-19T11:17:15;18.02;;;15.43;;
59659;SDS011;45534;52.690;6.268;2023-06-19T11:19:43;23.50;;;17.10;;
59659;SDS011;45534;52.690;6.268;2023-06-19T11:22:09;15.07;;;13.43;;
59659;SDS011;45534;52.690;6.268;2023-06-19T11:24:36;22.10;;;15.23;;
59659;SDS011;45534;52.690;6.268;2023-06-19T11:27:02;16.52;;;14.73;;
59659;SDS011;45534;52.690;6.268;2023-06-19T11:29:31;11.85;;;7.90;;
59659;SDS011;45534;52.690;6.268;2023-06-19T11:32:06;19.17;;;16.73;;
59659;SDS011;45534;52.690;6.268;2023-06-19T11:34:32;81.47;;;15.82;;
59659;SDS011;45534;52.690;6.268;2023-06-19T11:37:01;21.80;;;16.13;;
59659;SDS011;45534;52.690;6.268;2023-06-19T11:39:41;19.48;;;16.30;;
59659;SDS011;45534;52.690;6.268;2023-06-19T11:42:09;19.55;;;17.30;;
59659;SDS011;45534;52.690;6.268;2023-06-19T11:44:35;15.75;;;14.10;;
59659;SDS011;45534;52.690;6.268;2023-06-19T11:47:00;22.15;;;16.83;;
59659;SDS011;45534;52.690;6.268;2023-06-19T11:49:28;19.65;;;16.55;;
59659;SDS011;45534;52.690;6.268;2023-06-19T11:52:00;19.80;;;17.80;;
59659;SDS011;45534;52.690;6.268;2023-06-19T11:54:26;21.80;;;17.73;;
59659;SDS011;45534;52.690;6.268;2023-06-19T11:56:52;21.52;;;18.00;;
59659;SDS011;45534;52.690;6.268;2023-06-19T11:59:20;22.92;;;17.73;;
59659;SDS011;45534;52.690;6.268;2023-06-19T12:01:45;20.25;;;16.67;;
59659;SDS011;45534;52.690;6.268;2023-06-19T12:04:11;18.00;;;16.00;;
59659;SDS011;45534;52.690;6.268;2023-06-19T12:06:37;19.23;;;17.25;;
59659;SDS011;45534;52.690;6.268;2023-06-19T12:09:03;19.27;;;15.25;;
59659;SDS011;45534;52.690;6.268;2023-06-19T12:11:31;18.00;;;16.13;;
59659;SDS011;45534;52.690;6.268;2023-06-19T12:13:57;22.63;;;15.65;;
59659;SDS011;45534;52.690;6.268;2023-06-19T12:16:23;22.67;;;15.10;;
59659;SDS011;45534;52.690;6.268;2023-06-19T12:18:48;22.90;;;17.73;;
59659;SDS011;45534;52.690;6.268;2023-06-19T12:21:14;20.13;;;18.10;;
59659;SDS011;45534;52.690;6.268;2023-06-19T12:23:40;21.92;;;16.23;;
59659;SDS011;45534;52.690;6.268;2023-06-19T12:26:05;20.10;;;16.65;;
59659;SDS011;45534;52.690;6.268;2023-06-19T12:28:31;19.92;;;17.00;;
59659;SDS011;45534;52.690;6.268;2023-06-19T12:30:57;20.52;;;17.52;;
59659;SDS011;45534;52.690;6.268;2023-06-19T12:33:23;17.38;;;15.15;;
59659;SDS011;45534;52.690;6.268;2023-06-19T12:35:49;20.77;;;17.40;;
59659;SDS011;45534;52.690;6.268;2023-06-19T12:38:15;23.65;;;15.48;;
59659;SDS011;45534;52.690;6.268;2023-06-19T12:40:41;21.90;;;15.65;;
59659;SDS011;45534;52.690;6.268;2023-06-19T12:43:06;16.83;;;14.25;;
59659;SDS011;45534;52.690;6.268;2023-06-19T12:45:32;19.10;;;17.23;;
59659;SDS011;45534;52.690;6.268;2023-06-19T12:47:58;16.83;;;14.77;;
59659;SDS011;45534;52.690;6.268;2023-06-19T12:50:24;21.02;;;16.85;;
59659;SDS011;45534;52.690;6.268;2023-06-19T12:52:50;18.42;;;14.95;;
59659;SDS011;45534;52.690;6.268;2023-06-19T12:55:16;21.80;;;15.27;;
59659;SDS011;45534;52.690;6.268;2023-06-19T12:57:41;19.50;;;16.85;;
59659;SDS011;45534;52.690;6.268;2023-06-19T13:00:11;17.95;;;15.18;;
59659;SDS011;45534;52.690;6.268;2023-06-19T13:02:40;18.52;;;16.67;;
59659;SDS011;45534;52.690;6.268;2023-06-19T13:05:08;21.67;;;16.85;;
59659;SDS011;45534;52.690;6.268;2023-06-19T13:07:34;15.63;;;12.63;;
59659;SDS011;45534;52.690;6.268;2023-06-19T13:10:00;35.60;;;16.77;;
59659;SDS011;45534;52.690;6.268;2023-06-19T13:12:25;17.90;;;14.57;;
59659;SDS011;45534;52.690;6.268;2023-06-19T13:14:51;19.02;;;17.13;;
59659;SDS011;45534;52.690;6.268;2023-06-19T13:17:17;20.65;;;14.63;;
59659;SDS011;45534;52.690;6.268;2023-06-19T13:19:43;20.42;;;15.00;;
59659;SDS011;45534;52.690;6.268;2023-06-19T13:22:09;15.35;;;13.55;;
59659;SDS011;45534;52.690;6.268;2023-06-19T13:24:35;15.35;;;13.63;;
59659;SDS011;45534;52.690;6.268;2023-06-19T13:27:01;23.52;;;13.45;;
59659;SDS011;45534;52.690;6.268;2023-06-19T13:29:27;37.67;;;14.50;;
59659;SDS011;45534;52.690;6.268;2023-06-19T13:31:53;16.15;;;11.82;;
59659;SDS011;45534;52.690;6.268;2023-06-19T13:34:19;13.50;;;11.50;;
59659;SDS011;45534;52.690;6.268;2023-06-19T13:36:46;26.02;;;10.93;;
59659;SDS011;45534;52.690;6.268;2023-06-19T13:39:12;24.83;;;11.35;;
59659;SDS011;45534;52.690;6.268;2023-06-19T13:41:38;14.10;;;10.52;;
59659;SDS011;45534;52.690;6.268;2023-06-19T13:44:04;12.63;;;8.60;;
59659;SDS011;45534;52.690;6.268;2023-06-19T13:46:30;17.27;;;11.15;;
59659;SDS011;45534;52.690;6.268;2023-06-19T13:48:56;18.50;;;9.43;;
59659;SDS011;45534;52.690;6.268;2023-06-19T13:51:22;11.20;;;8.30;;
59659;SDS011;45534;52.690;6.268;2023-06-19T13:54:02;14.63;;;8.90;;
59659;SDS011;45534;52.690;6.268;2023-06-19T13:58:58;12.75;;;8.57;;
59659;SDS011;45534;52.690;6.268;2023-06-19T14:01:24;12.38;;;8.07;;
59659;SDS011;45534;52.690;6.268;2023-06-19T14:03:50;17.38;;;9.70;;
59659;SDS011;45534;52.690;6.268;2023-06-19T14:06:17;14.07;;;7.80;;
59659;SDS011;45534;52.690;6.268;2023-06-19T14:08:42;17.60;;;8.40;;
59659;SDS011;45534;52.690;6.268;2023-06-19T14:11:08;11.13;;;7.68;;
59659;SDS011;45534;52.690;6.268;2023-06-19T14:13:34;10.35;;;6.80;;
59659;SDS011;45534;52.690;6.268;2023-06-19T14:16:00;10.02;;;7.65;;
59659;SDS011;45534;52.690;6.268;2023-06-19T14:18:26;10.50;;;7.15;;
59659;SDS011;45534;52.690;6.268;2023-06-19T14:20:52;9.13;;;7.80;;
59659;SDS011;45534;52.690;6.268;2023-06-19T14:23:18;9.50;;;7.35;;
59659;SDS011;45534;52.690;6.268;2023-06-19T14:25:44;11.70;;;6.57;;
59659;SDS011;45534;52.690;6.268;2023-06-19T14:28:09;9.52;;;7.00;;
59659;SDS011;45534;52.690;6.268;2023-06-19T14:30:35;10.65;;;6.97;;
59659;SDS011;45534;52.690;6.268;2023-06-19T14:33:01;9.40;;;6.63;;
59659;SDS011;45534;52.690;6.268;2023-06-19T14:35:27;11.30;;;7.18;;
59659;SDS011;45534;52.690;6.268;2023-06-19T14:37:52;8.07;;;5.90;;
59659;SDS011;45534;52.690;6.268;2023-06-19T14:40:18;9.25;;;7.32;;
59659;SDS011;45534;52.690;6.268;2023-06-19T14:42:44;7.88;;;5.75;;
59659;SDS011;45534;52.690;6.268;2023-06-19T14:45:09;10.55;;;6.75;;
59659;SDS011;45534;52.690;6.268;2023-06-19T14:47:35;9.02;;;7.55;;